Terminal Aerodrome Forecast
Issued by NWS

Home | Current Version | Previous Version | Text Only | Print | Product List | Glossary On
Versions: 1 2 3 4 5 6 7 8 9 10 11 12 13 14 15 16 17 18
000
FTUS43 KGLD 270536 AAB
TAFMCK
TAF AMD
KMCK 270536Z 2706/2806 22005KT P6SM SCT200
     FM270900 08004KT 5SM BR SCT200
     FM271000 09004KT 3SM BR SCT005
     FM271200 VRB03KT 1SM BR BKN005
      TEMPO 2712/2714 1/2SM FG OVC004
     FM271500 14004KT 3SM BR SCT015
     FM271600 13004KT P6SM SCT150
     FM280000 15008KT P6SM SCT080 BKN150=

USA.gov is the U.S. government's official web portal to all federal, state and local government web resources and services.